sensor_id;sensor_type;location;lat;lon;timestamp;pressure;altitude;pressure_sealevel;temperature;humidity
8941;BME280;4505;43.406;23.226;2022-09-09T00:01:27;99732.44;;;19.47;100.00
8941;BME280;4505;43.406;23.226;2022-09-09T00:03:57;99735.66;;;19.49;100.00
8941;BME280;4505;43.406;23.226;2022-09-09T00:06:28;99732.13;;;19.48;100.00
8941;BME280;4505;43.406;23.226;2022-09-09T00:08:59;99730.78;;;19.51;100.00
8941;BME280;4505;43.406;23.226;2022-09-09T00:11:28;99732.59;;;19.55;100.00
8941;BME280;4505;43.406;23.226;2022-09-09T00:13:57;99738.84;;;19.51;100.00
8941;BME280;4505;43.406;23.226;2022-09-09T00:16:25;99727.56;;;19.49;100.00
8941;BME280;4505;43.406;23.226;2022-09-09T00:18:56;99726.75;;;19.48;100.00
8941;BME280;4505;43.406;23.226;2022-09-09T00:21:25;99711.19;;;19.45;100.00
8941;BME280;4505;43.406;23.226;2022-09-09T00:23:55;99715.16;;;19.48;100.00
8941;BME280;4505;43.406;23.226;2022-09-09T00:26:23;99720.06;;;19.46;100.00
8941;BME280;4505;43.406;23.226;2022-09-09T00:28:56;99714.63;;;19.51;100.00
8941;BME280;4505;43.406;23.226;2022-09-09T00:31:27;99717.00;;;19.52;100.00
8941;BME280;4505;43.406;23.226;2022-09-09T00:33:54;99718.31;;;19.55;100.00
8941;BME280;4505;43.406;23.226;2022-09-09T00:36:24;99716.72;;;19.54;100.00
8941;BME280;4505;43.406;23.226;2022-09-09T00:38:56;99711.81;;;19.56;100.00
8941;BME280;4505;43.406;23.226;2022-09-09T00:41:26;99714.97;;;19.44;100.00
8941;BME280;4505;43.406;23.226;2022-09-09T00:43:57;99728.34;;;19.49;100.00
8941;BME280;4505;43.406;23.226;2022-09-09T00:49:12;99717.38;;;19.46;100.00
8941;BME280;4505;43.406;23.226;2022-09-09T00:51:44;99707.59;;;19.50;100.00
8941;BME280;4505;43.406;23.226;2022-09-09T00:54:21;99705.44;;;19.52;100.00
8941;BME280;4505;43.406;23.226;2022-09-09T00:56:51;99708.78;;;19.44;100.00
8941;BME280;4505;43.406;23.226;2022-09-09T00:59:24;99722.19;;;19.49;100.00
8941;BME280;4505;43.406;23.226;2022-09-09T01:01:54;99726.03;;;19.61;100.00
8941;BME280;4505;43.406;23.226;2022-09-09T01:04:22;99726.16;;;19.51;100.00
8941;BME280;4505;43.406;23.226;2022-09-09T01:06:55;99721.13;;;19.45;100.00
8941;BME280;4505;43.406;23.226;2022-09-09T01:09:26;99722.31;;;19.39;100.00
8941;BME280;4505;43.406;23.226;2022-09-09T01:11:57;99725.66;;;19.31;100.00
8941;BME280;4505;43.406;23.226;2022-09-09T01:14:30;99725.75;;;19.21;100.00
8941;BME280;4505;43.406;23.226;2022-09-09T01:16:59;99719.69;;;19.10;100.00
8941;BME280;4505;43.406;23.226;2022-09-09T01:19:34;99718.06;;;19.09;100.00
8941;BME280;4505;43.406;23.226;2022-09-09T01:22:07;99713.78;;;19.08;100.00
8941;BME280;4505;43.406;23.226;2022-09-09T01:24:40;99718.66;;;19.06;100.00
8941;BME280;4505;43.406;23.226;2022-09-09T01:27:11;99721.94;;;19.03;100.00
8941;BME280;4505;43.406;23.226;2022-09-09T01:29:40;99725.66;;;19.07;100.00
8941;BME280;4505;43.406;23.226;2022-09-09T01:34:48;99720.50;;;19.11;100.00
8941;BME280;4505;43.406;23.226;2022-09-09T01:37:16;99719.13;;;19.13;100.00
8941;BME280;4505;43.406;23.226;2022-09-09T01:39:43;99721.56;;;19.10;100.00
8941;BME280;4505;43.406;23.226;2022-09-09T01:42:13;99727.78;;;18.87;100.00
8941;BME280;4505;43.406;23.226;2022-09-09T01:44:41;99727.53;;;18.60;100.00
8941;BME280;4505;43.406;23.226;2022-09-09T01:47:07;99721.75;;;18.71;100.00
8941;BME280;4505;43.406;23.226;2022-09-09T01:49:34;99727.47;;;18.65;100.00
8941;BME280;4505;43.406;23.226;2022-09-09T01:52:00;99728.34;;;18.60;100.00
8941;BME280;4505;43.406;23.226;2022-09-09T01:54:28;99728.63;;;18.59;100.00
8941;BME280;4505;43.406;23.226;2022-09-09T01:57:01;99727.84;;;18.53;100.00
8941;BME280;4505;43.406;23.226;2022-09-09T01:59:41;99732.63;;;18.61;100.00
8941;BME280;4505;43.406;23.226;2022-09-09T02:02:11;99734.75;;;18.64;100.00
8941;BME280;4505;43.406;23.226;2022-09-09T02:04:40;99747.41;;;18.64;100.00
8941;BME280;4505;43.406;23.226;2022-09-09T02:07:11;99741.22;;;18.63;100.00
8941;BME280;4505;43.406;23.226;2022-09-09T02:09:42;99741.22;;;18.63;100.00
8941;BME280;4505;43.406;23.226;2022-09-09T02:12:11;99749.56;;;18.62;100.00
8941;BME280;4505;43.406;23.226;2022-09-09T02:14:42;99757.63;;;18.62;100.00
8941;BME280;4505;43.406;23.226;2022-09-09T02:17:11;99744.13;;;18.67;100.00
8941;BME280;4505;43.406;23.226;2022-09-09T02:19:41;99738.34;;;18.55;100.00
8941;BME280;4505;43.406;23.226;2022-09-09T02:22:11;99739.09;;;18.60;100.00
8941;BME280;4505;43.406;23.226;2022-09-09T02:24:38;99731.84;;;18.61;100.00
8941;BME280;4505;43.406;23.226;2022-09-09T02:27:06;99737.66;;;18.68;100.00
8941;BME280;4505;43.406;23.226;2022-09-09T02:29:34;99742.84;;;18.64;100.00
8941;BME280;4505;43.406;23.226;2022-09-09T02:32:04;99749.63;;;18.57;100.00
8941;BME280;4505;43.406;23.226;2022-09-09T02:34:33;99746.69;;;18.53;100.00
8941;BME280;4505;43.406;23.226;2022-09-09T02:37:02;99746.47;;;18.49;100.00
8941;BME280;4505;43.406;23.226;2022-09-09T02:39:29;99761.47;;;18.56;100.00
8941;BME280;4505;43.406;23.226;2022-09-09T02:41:56;99757.69;;;18.57;100.00
8941;BME280;4505;43.406;23.226;2022-09-09T02:44:22;99760.50;;;18.46;100.00
8941;BME280;4505;43.406;23.226;2022-09-09T02:46:54;99763.84;;;18.28;100.00
8941;BME280;4505;43.406;23.226;2022-09-09T02:49:28;99759.53;;;18.27;100.00
8941;BME280;4505;43.406;23.226;2022-09-09T02:52:00;99755.78;;;18.28;100.00
8941;BME280;4505;43.406;23.226;2022-09-09T02:54:28;99754.72;;;18.24;100.00
8941;BME280;4505;43.406;23.226;2022-09-09T02:56:56;99759.03;;;18.25;100.00
8941;BME280;4505;43.406;23.226;2022-09-09T02:59:28;99757.94;;;18.26;100.00
8941;BME280;4505;43.406;23.226;2022-09-09T03:01:55;99755.78;;;18.28;100.00
8941;BME280;4505;43.406;23.226;2022-09-09T03:04:22;99761.09;;;18.33;100.00
8941;BME280;4505;43.406;23.226;2022-09-09T03:06:51;99764.88;;;18.32;100.00
8941;BME280;4505;43.406;23.226;2022-09-09T03:09:17;99762.47;;;18.31;100.00
8941;BME280;4505;43.406;23.226;2022-09-09T03:11:44;99769.19;;;18.33;100.00
8941;BME280;4505;43.406;23.226;2022-09-09T03:14:11;99765.38;;;18.39;100.00
8941;BME280;4505;43.406;23.226;2022-09-09T03:16:37;99767.50;;;18.37;100.00
8941;BME280;4505;43.406;23.226;2022-09-09T03:19:04;99773.81;;;18.23;100.00
8941;BME280;4505;43.406;23.226;2022-09-09T03:21:31;99765.19;;;18.26;100.00
8941;BME280;4505;43.406;23.226;2022-09-09T03:23:59;99768.44;;;18.23;100.00
8941;BME280;4505;43.406;23.226;2022-09-09T03:26:28;99774.97;;;18.12;100.00
8941;BME280;4505;43.406;23.226;2022-09-09T03:28:55;99779.03;;;18.09;100.00
8941;BME280;4505;43.406;23.226;2022-09-09T03:31:21;99776.06;;;18.11;100.00
8941;BME280;4505;43.406;23.226;2022-09-09T03:33:48;99776.31;;;18.14;100.00
8941;BME280;4505;43.406;23.226;2022-09-09T03:36:14;99783.06;;;18.07;100.00
8941;BME280;4505;43.406;23.226;2022-09-09T03:38:41;99771.00;;;18.04;100.00
8941;BME280;4505;43.406;23.226;2022-09-09T03:41:09;99771.00;;;18.04;100.00
8941;BME280;4505;43.406;23.226;2022-09-09T03:43:36;99779.34;;;18.03;100.00
8941;BME280;4505;43.406;23.226;2022-09-09T03:46:02;99766.22;;;18.01;100.00
8941;BME280;4505;43.406;23.226;2022-09-09T03:48:29;99769.38;;;18.03;100.00
8941;BME280;4505;43.406;23.226;2022-09-09T03:50:55;99775.81;;;18.07;100.00
8941;BME280;4505;43.406;23.226;2022-09-09T03:53:23;99775.50;;;18.14;100.00
8941;BME280;4505;43.406;23.226;2022-09-09T03:55:51;99772.03;;;18.08;100.00
8941;BME280;4505;43.406;23.226;2022-09-09T03:58:21;99770.97;;;18.09;100.00
8941;BME280;4505;43.406;23.226;2022-09-09T04:00:52;99775.47;;;18.19;100.00
8941;BME280;4505;43.406;23.226;2022-09-09T04:03:19;99786.25;;;18.14;100.00
8941;BME280;4505;43.406;23.226;2022-09-09T04:05:48;99785.38;;;18.23;100.00
8941;BME280;4505;43.406;23.226;2022-09-09T04:08:14;99775.72;;;18.22;100.00
8941;BME280;4505;43.406;23.226;2022-09-09T04:10:41;99783.22;;;18.25;100.00
8941;BME280;4505;43.406;23.226;2022-09-09T04:13:07;99786.88;;;18.39;100.00
8941;BME280;4505;43.406;23.226;2022-09-09T04:15:35;99777.44;;;18.42;100.00
8941;BME280;4505;43.406;23.226;2022-09-09T04:18:02;99776.56;;;18.51;100.00
8941;BME280;4505;43.406;23.226;2022-09-09T04:20:28;99779.72;;;18.59;100.00
8941;BME280;4505;43.406;23.226;2022-09-09T04:22:55;99773.16;;;18.70;100.00
8941;BME280;4505;43.406;23.226;2022-09-09T04:25:21;99774.06;;;18.84;100.00
8941;BME280;4505;43.406;23.226;2022-09-09T04:27:52;99781.53;;;18.92;100.00
8941;BME280;4505;43.406;23.226;2022-09-09T04:30:19;99785.59;;;18.89;100.00
8941;BME280;4505;43.406;23.226;2022-09-09T04:32:47;99776.22;;;19.10;100.00
8941;BME280;4505;43.406;23.226;2022-09-09T04:35:14;99783.03;;;19.26;100.00
8941;BME280;4505;43.406;23.226;2022-09-09T04:37:40;99787.22;;;19.37;100.00
8941;BME280;4505;43.406;23.226;2022-09-09T04:40:08;99784.66;;;19.51;100.00
8941;BME280;4505;43.406;23.226;2022-09-09T04:42:35;99780.25;;;19.55;100.00
8941;BME280;4505;43.406;23.226;2022-09-09T04:45:02;99775.53;;;19.65;100.00
8941;BME280;4505;43.406;23.226;2022-09-09T04:47:29;99770.44;;;19.64;100.00
8941;BME280;4505;43.406;23.226;2022-09-09T04:49:57;99761.31;;;19.41;100.00
8941;BME280;4505;43.406;23.226;2022-09-09T04:52:23;99758.00;;;19.26;100.00
8941;BME280;4505;43.406;23.226;2022-09-09T04:54:50;99760.66;;;19.31;100.00
8941;BME280;4505;43.406;23.226;2022-09-09T04:57:17;99766.56;;;19.33;100.00
8941;BME280;4505;43.406;23.226;2022-09-09T04:59:43;99768.09;;;19.57;100.00
8941;BME280;4505;43.406;23.226;2022-09-09T05:02:11;99755.81;;;19.70;100.00
8941;BME280;4505;43.406;23.226;2022-09-09T05:04:37;99765.41;;;19.94;100.00
8941;BME280;4505;43.406;23.226;2022-09-09T05:07:05;99775.31;;;20.18;100.00
8941;BME280;4505;43.406;23.226;2022-09-09T05:09:32;99782.81;;;20.21;100.00
8941;BME280;4505;43.406;23.226;2022-09-09T05:11:58;99775.13;;;20.46;100.00
8941;BME280;4505;43.406;23.226;2022-09-09T05:14:25;99774.38;;;20.73;100.00
8941;BME280;4505;43.406;23.226;2022-09-09T05:16:51;99769.41;;;20.93;100.00
8941;BME280;4505;43.406;23.226;2022-09-09T05:19:18;99758.63;;;21.07;100.00
8941;BME280;4505;43.406;23.226;2022-09-09T05:21:45;99769.03;;;21.27;100.00
8941;BME280;4505;43.406;23.226;2022-09-09T05:24:13;99778.16;;;21.17;100.00
8941;BME280;4505;43.406;23.226;2022-09-09T05:26:39;99779.50;;;21.42;100.00
8941;BME280;4505;43.406;23.226;2022-09-09T05:29:06;99774.28;;;21.59;100.00
8941;BME280;4505;43.406;23.226;2022-09-09T05:31:33;99770.63;;;21.91;100.00
8941;BME280;4505;43.406;23.226;2022-09-09T05:34:00;99769.25;;;21.80;100.00
8941;BME280;4505;43.406;23.226;2022-09-09T05:36:27;99762.63;;;21.86;100.00
8941;BME280;4505;43.406;23.226;2022-09-09T05:38:53;99763.09;;;22.01;100.00
8941;BME280;4505;43.406;23.226;2022-09-09T05:41:21;99758.03;;;22.08;100.00
8941;BME280;4505;43.406;23.226;2022-09-09T05:43:49;99758.53;;;21.88;100.00
8941;BME280;4505;43.406;23.226;2022-09-09T05:46:16;99755.47;;;21.68;100.00
8941;BME280;4505;43.406;23.226;2022-09-09T05:48:43;99763.00;;;21.93;100.00
8941;BME280;4505;43.406;23.226;2022-09-09T05:51:12;99763.63;;;22.12;100.00
8941;BME280;4505;43.406;23.226;2022-09-09T05:53:40;99767.81;;;22.18;100.00
8941;BME280;4505;43.406;23.226;2022-09-09T05:56:08;99775.16;;;21.68;100.00
8941;BME280;4505;43.406;23.226;2022-09-09T05:58:37;99770.00;;;21.94;100.00
8941;BME280;4505;43.406;23.226;2022-09-09T06:01:05;99769.16;;;21.85;100.00
8941;BME280;4505;43.406;23.226;2022-09-09T06:03:36;99767.78;;;21.60;100.00
8941;BME280;4505;43.406;23.226;2022-09-09T06:06:03;99770.66;;;21.64;100.00
8941;BME280;4505;43.406;23.226;2022-09-09T06:08:31;99766.25;;;21.81;100.00
8941;BME280;4505;43.406;23.226;2022-09-09T06:11:00;99757.31;;;21.94;100.00
8941;BME280;4505;43.406;23.226;2022-09-09T06:13:28;99761.59;;;21.60;100.00
8941;BME280;4505;43.406;23.226;2022-09-09T06:15:56;99758.56;;;21.97;100.00
8941;BME280;4505;43.406;23.226;2022-09-09T06:18:29;99754.97;;;22.23;100.00
8941;BME280;4505;43.406;23.226;2022-09-09T06:20:56;99751.84;;;22.52;100.00
8941;BME280;4505;43.406;23.226;2022-09-09T06:23:23;99752.09;;;22.73;100.00
8941;BME280;4505;43.406;23.226;2022-09-09T06:25:50;99761.06;;;22.82;100.00
8941;BME280;4505;43.406;23.226;2022-09-09T06:28:17;99761.84;;;23.21;100.00
8941;BME280;4505;43.406;23.226;2022-09-09T06:30:44;99756.25;;;23.18;100.00
8941;BME280;4505;43.406;23.226;2022-09-09T06:33:13;99760.84;;;23.09;100.00
8941;BME280;4505;43.406;23.226;2022-09-09T06:35:40;99759.38;;;22.94;100.00
8941;BME280;4505;43.406;23.226;2022-09-09T06:38:06;99762.25;;;23.45;100.00
8941;BME280;4505;43.406;23.226;2022-09-09T06:40:33;99755.31;;;23.22;100.00
8941;BME280;4505;43.406;23.226;2022-09-09T06:43:00;99769.13;;;23.77;100.00
8941;BME280;4505;43.406;23.226;2022-09-09T06:45:27;99767.88;;;23.91;100.00
8941;BME280;4505;43.406;23.226;2022-09-09T06:47:54;99771.53;;;23.61;100.00
8941;BME280;4505;43.406;23.226;2022-09-09T06:50:22;99765.47;;;23.90;100.00
8941;BME280;4505;43.406;23.226;2022-09-09T06:52:49;99762.44;;;23.91;100.00
8941;BME280;4505;43.406;23.226;2022-09-09T06:55:15;99766.78;;;24.10;100.00
8941;BME280;4505;43.406;23.226;2022-09-09T06:57:43;99785.47;;;24.91;100.00
8941;BME280;4505;43.406;23.226;2022-09-09T07:00:10;99785.38;;;24.62;100.00
8941;BME280;4505;43.406;23.226;2022-09-09T07:02:39;99783.38;;;24.97;100.00
8941;BME280;4505;43.406;23.226;2022-09-09T07:05:06;99790.50;;;24.55;100.00
8941;BME280;4505;43.406;23.226;2022-09-09T07:07:35;99786.84;;;24.51;100.00
8941;BME280;4505;43.406;23.226;2022-09-09T07:10:02;99779.06;;;25.33;100.00
8941;BME280;4505;43.406;23.226;2022-09-09T07:12:29;99774.91;;;24.27;100.00
8941;BME280;4505;43.406;23.226;2022-09-09T07:14:55;99777.09;;;23.73;100.00
8941;BME280;4505;43.406;23.226;2022-09-09T07:17:22;99781.63;;;24.21;100.00
8941;BME280;4505;43.406;23.226;2022-09-09T07:19:49;99774.53;;;24.71;100.00
8941;BME280;4505;43.406;23.226;2022-09-09T07:22:15;99775.66;;;25.07;100.00
8941;BME280;4505;43.406;23.226;2022-09-09T07:24:43;99772.81;;;25.33;100.00
8941;BME280;4505;43.406;23.226;2022-09-09T07:27:10;99773.25;;;25.14;100.00
8941;BME280;4505;43.406;23.226;2022-09-09T07:29:37;99770.31;;;25.78;100.00
8941;BME280;4505;43.406;23.226;2022-09-09T07:32:03;99769.56;;;25.48;100.00
8941;BME280;4505;43.406;23.226;2022-09-09T07:34:30;99774.34;;;25.92;100.00
8941;BME280;4505;43.406;23.226;2022-09-09T07:36:57;99774.44;;;26.04;100.00
8941;BME280;4505;43.406;23.226;2022-09-09T07:39:23;99774.84;;;26.47;100.00
8941;BME280;4505;43.406;23.226;2022-09-09T07:41:52;99777.28;;;26.08;100.00
8941;BME280;4505;43.406;23.226;2022-09-09T07:44:21;99777.13;;;25.84;100.00
8941;BME280;4505;43.406;23.226;2022-09-09T07:46:48;99780.41;;;25.77;100.00
8941;BME280;4505;43.406;23.226;2022-09-09T07:49:14;99780.63;;;26.46;100.00
8941;BME280;4505;43.406;23.226;2022-09-09T07:51:43;99794.69;;;26.48;100.00
8941;BME280;4505;43.406;23.226;2022-09-09T07:54:11;99790.16;;;25.99;100.00
8941;BME280;4505;43.406;23.226;2022-09-09T07:56:38;99791.69;;;25.29;100.00
8941;BME280;4505;43.406;23.226;2022-09-09T07:59:06;99790.41;;;24.98;100.00
8941;BME280;4505;43.406;23.226;2022-09-09T08:01:35;99788.50;;;25.27;100.00
8941;BME280;4505;43.406;23.226;2022-09-09T08:04:05;99786.47;;;25.54;100.00
8941;BME280;4505;43.406;23.226;2022-09-09T08:06:33;99787.09;;;25.59;100.00
8941;BME280;4505;43.406;23.226;2022-09-09T08:09:00;99796.44;;;25.70;100.00
8941;BME280;4505;43.406;23.226;2022-09-09T08:11:28;99795.41;;;26.24;100.00
8941;BME280;4505;43.406;23.226;2022-09-09T08:13:55;99800.81;;;26.65;100.00
8941;BME280;4505;43.406;23.226;2022-09-09T08:16:23;99796.84;;;26.42;100.00
8941;BME280;4505;43.406;23.226;2022-09-09T08:18:51;99789.38;;;26.84;100.00
8941;BME280;4505;43.406;23.226;2022-09-09T08:21:19;99793.78;;;26.44;100.00
8941;BME280;4505;43.406;23.226;2022-09-09T08:23:46;99784.09;;;26.34;100.00
8941;BME280;4505;43.406;23.226;2022-09-09T08:26:14;99797.91;;;26.29;100.00
8941;BME280;4505;43.406;23.226;2022-09-09T08:28:41;99794.94;;;26.55;100.00
8941;BME280;4505;43.406;23.226;2022-09-09T08:31:09;99784.72;;;26.85;100.00
8941;BME280;4505;43.406;23.226;2022-09-09T08:33:37;99784.13;;;26.79;100.00
8941;BME280;4505;43.406;23.226;2022-09-09T08:36:04;99786.78;;;27.24;100.00
8941;BME280;4505;43.406;23.226;2022-09-09T08:38:31;99788.13;;;26.94;100.00
8941;BME280;4505;43.406;23.226;2022-09-09T08:41:00;99786.28;;;26.41;100.00
8941;BME280;4505;43.406;23.226;2022-09-09T08:43:28;99781.19;;;26.51;100.00
8941;BME280;4505;43.406;23.226;2022-09-09T08:45:58;99781.00;;;26.03;100.00
8941;BME280;4505;43.406;23.226;2022-09-09T08:48:35;99786.72;;;25.90;100.00
8941;BME280;4505;43.406;23.226;2022-09-09T08:51:07;99785.53;;;26.52;100.00
8941;BME280;4505;43.406;23.226;2022-09-09T08:53:36;99781.50;;;26.70;100.00
8941;BME280;4505;43.406;23.226;2022-09-09T08:56:08;99781.34;;;26.02;100.00
8941;BME280;4505;43.406;23.226;2022-09-09T08:58:39;99787.81;;;25.68;100.00
8941;BME280;4505;43.406;23.226;2022-09-09T09:01:14;99785.72;;;26.15;100.00
8941;BME280;4505;43.406;23.226;2022-09-09T09:03:47;99786.97;;;26.95;100.00
8941;BME280;4505;43.406;23.226;2022-09-09T09:06:21;99793.00;;;26.88;100.00
8941;BME280;4505;43.406;23.226;2022-09-09T09:08:52;99797.13;;;26.08;100.00
8941;BME280;4505;43.406;23.226;2022-09-09T09:11:22;99795.25;;;26.41;100.00
8941;BME280;4505;43.406;23.226;2022-09-09T09:13:50;99795.56;;;26.40;100.00
8941;BME280;4505;43.406;23.226;2022-09-09T09:16:22;99792.56;;;26.98;100.00
8941;BME280;4505;43.406;23.226;2022-09-09T09:18:50;99791.66;;;26.49;100.00
8941;BME280;4505;43.406;23.226;2022-09-09T09:21:19;99788.94;;;26.49;100.00
8941;BME280;4505;43.406;23.226;2022-09-09T09:23:51;99788.81;;;26.58;100.00
8941;BME280;4505;43.406;23.226;2022-09-09T09:26:20;99793.53;;;26.69;100.00
8941;BME280;4505;43.406;23.226;2022-09-09T09:28:48;99790.59;;;26.75;100.00
8941;BME280;4505;43.406;23.226;2022-09-09T09:31:15;99789.81;;;26.86;100.00
8941;BME280;4505;43.406;23.226;2022-09-09T09:33:45;99794.16;;;26.99;100.00
8941;BME280;4505;43.406;23.226;2022-09-09T09:36:13;99793.19;;;26.71;100.00
8941;BME280;4505;43.406;23.226;2022-09-09T09:38:40;99792.13;;;26.63;100.00
8941;BME280;4505;43.406;23.226;2022-09-09T09:41:19;99793.81;;;27.13;100.00
8941;BME280;4505;43.406;23.226;2022-09-09T09:43:55;99798.00;;;26.98;100.00
8941;BME280;4505;43.406;23.226;2022-09-09T09:46:22;99795.75;;;26.55;100.00
8941;BME280;4505;43.406;23.226;2022-09-09T09:48:58;99796.34;;;26.28;100.00
8941;BME280;4505;43.406;23.226;2022-09-09T09:51:25;99794.63;;;26.03;100.00
8941;BME280;4505;43.406;23.226;2022-09-09T09:54:13;99790.28;;;26.23;100.00
8941;BME280;4505;43.406;23.226;2022-09-09T10:00:03;99797.59;;;26.63;100.00
8941;BME280;4505;43.406;23.226;2022-09-09T10:02:36;99797.44;;;27.05;100.00
8941;BME280;4505;43.406;23.226;2022-09-09T10:05:05;99800.09;;;27.49;100.00
8941;BME280;4505;43.406;23.226;2022-09-09T10:07:33;99797.69;;;27.60;100.00
8941;BME280;4505;43.406;23.226;2022-09-09T10:10:02;99804.59;;;27.09;100.00
8941;BME280;4505;43.406;23.226;2022-09-09T10:12:32;99803.53;;;27.34;100.00
8941;BME280;4505;43.406;23.226;2022-09-09T10:15:01;99803.75;;;27.29;100.00
8941;BME280;4505;43.406;23.226;2022-09-09T10:17:33;99803.84;;;27.57;100.00
8941;BME280;4505;43.406;23.226;2022-09-09T10:20:11;99807.78;;;26.99;100.00
8941;BME280;4505;43.406;23.226;2022-09-09T10:22:42;99817.38;;;26.73;100.00
8941;BME280;4505;43.406;23.226;2022-09-09T10:25:16;99815.91;;;26.42;100.00
8941;BME280;4505;43.406;23.226;2022-09-09T10:27:53;99815.81;;;26.84;100.00
8941;BME280;4505;43.406;23.226;2022-09-09T10:30:27;99811.50;;;26.50;100.00
8941;BME280;4505;43.406;23.226;2022-09-09T10:33:01;99805.72;;;26.96;100.00
8941;BME280;4505;43.406;23.226;2022-09-09T10:35:38;99812.22;;;27.04;100.00
8941;BME280;4505;43.406;23.226;2022-09-09T10:38:13;99813.25;;;27.23;100.00
8941;BME280;4505;43.406;23.226;2022-09-09T10:40:46;99814.88;;;27.48;100.00
8941;BME280;4505;43.406;23.226;2022-09-09T10:43:32;99812.13;;;27.72;100.00
8941;BME280;4505;43.406;23.226;2022-09-09T10:46:06;99813.34;;;26.25;100.00
8941;BME280;4505;43.406;23.226;2022-09-09T10:48:40;99814.78;;;26.76;100.00
8941;BME280;4505;43.406;23.226;2022-09-09T10:51:19;99815.41;;;27.06;100.00
8941;BME280;4505;43.406;23.226;2022-09-09T10:53:52;99817.69;;;27.76;100.00
8941;BME280;4505;43.406;23.226;2022-09-09T10:56:23;99819.69;;;28.03;100.00
8941;BME280;4505;43.406;23.226;2022-09-09T10:58:51;99813.06;;;28.44;100.00
8941;BME280;4505;43.406;23.226;2022-09-09T11:01:20;99807.88;;;28.66;100.00
8941;BME280;4505;43.406;23.226;2022-09-09T11:03:51;99802.69;;;29.23;100.00
8941;BME280;4505;43.406;23.226;2022-09-09T11:06:21;99797.34;;;29.62;100.00
8941;BME280;4505;43.406;23.226;2022-09-09T11:08:49;99785.03;;;30.06;100.00
8941;BME280;4505;43.406;23.226;2022-09-09T11:11:19;99790.66;;;29.59;100.00
8941;BME280;4505;43.406;23.226;2022-09-09T11:13:53;99798.16;;;28.84;100.00
8941;BME280;4505;43.406;23.226;2022-09-09T11:16:23;99792.44;;;29.05;100.00
8941;BME280;4505;43.406;23.226;2022-09-09T11:18:55;99781.88;;;29.19;100.00
8941;BME280;4505;43.406;23.226;2022-09-09T11:21:25;99780.00;;;29.38;100.00
8941;BME280;4505;43.406;23.226;2022-09-09T11:23:54;99781.44;;;29.17;100.00
8941;BME280;4505;43.406;23.226;2022-09-09T11:26:25;99771.41;;;29.56;100.00
8941;BME280;4505;43.406;23.226;2022-09-09T11:28:57;99769.69;;;29.16;100.00
8941;BME280;4505;43.406;23.226;2022-09-09T11:31:37;99767.75;;;29.17;100.00
8941;BME280;4505;43.406;23.226;2022-09-09T11:34:12;99771.28;;;29.33;100.00
8941;BME280;4505;43.406;23.226;2022-09-09T11:39:33;99761.94;;;28.44;100.00
8941;BME280;4505;43.406;23.226;2022-09-09T11:42:06;99747.09;;;29.70;100.00
8941;BME280;4505;43.406;23.226;2022-09-09T11:44:41;99749.41;;;29.68;100.00
8941;BME280;4505;43.406;23.226;2022-09-09T11:47:15;99750.44;;;29.79;100.00
8941;BME280;4505;43.406;23.226;2022-09-09T11:49:44;99757.59;;;27.00;100.00
8941;BME280;4505;43.406;23.226;2022-09-09T11:52:11;99754.63;;;26.93;100.00
8941;BME280;4505;43.406;23.226;2022-09-09T11:54:44;99750.53;;;27.11;100.00
8941;BME280;4505;43.406;23.226;2022-09-09T11:57:16;99752.91;;;26.77;100.00
8941;BME280;4505;43.406;23.226;2022-09-09T11:59:50;99747.69;;;27.56;100.00
8941;BME280;4505;43.406;23.226;2022-09-09T12:02:18;99738.31;;;27.81;100.00
8941;BME280;4505;43.406;23.226;2022-09-09T12:04:54;99746.22;;;28.53;100.00
8941;BME280;4505;43.406;23.226;2022-09-09T12:07:23;99739.25;;;29.87;100.00
8941;BME280;4505;43.406;23.226;2022-09-09T12:09:54;99725.44;;;29.46;100.00
8941;BME280;4505;43.406;23.226;2022-09-09T12:12:30;99726.72;;;30.05;100.00
8941;BME280;4505;43.406;23.226;2022-09-09T12:14:59;99720.94;;;31.20;100.00
8941;BME280;4505;43.406;23.226;2022-09-09T12:17:26;99724.75;;;31.38;100.00
8941;BME280;4505;43.406;23.226;2022-09-09T12:20:01;99719.69;;;32.72;100.00
8941;BME280;4505;43.406;23.226;2022-09-09T12:22:35;99709.16;;;33.32;93.38
8941;BME280;4505;43.406;23.226;2022-09-09T12:25:08;99698.50;;;34.09;86.04
8941;BME280;4505;43.406;23.226;2022-09-09T12:27:40;99701.72;;;34.36;69.02
8941;BME280;4505;43.406;23.226;2022-09-09T12:30:14;99700.03;;;32.70;81.41
8941;BME280;4505;43.406;23.226;2022-09-09T12:32:41;99692.94;;;33.20;81.07
8941;BME280;4505;43.406;23.226;2022-09-09T12:35:11;99692.38;;;32.93;93.56
8941;BME280;4505;43.406;23.226;2022-09-09T12:37:40;99686.41;;;34.91;73.49
8941;BME280;4505;43.406;23.226;2022-09-09T12:40:18;99685.88;;;35.56;68.30
8941;BME280;4505;43.406;23.226;2022-09-09T12:42:45;99676.28;;;35.92;57.11
8941;BME280;4505;43.406;23.226;2022-09-09T12:45:15;99664.69;;;34.30;70.75
8941;BME280;4505;43.406;23.226;2022-09-09T12:47:44;99661.06;;;35.49;57.04
8941;BME280;4505;43.406;23.226;2022-09-09T12:50:19;99680.00;;;33.27;74.50
8941;BME280;4505;43.406;23.226;2022-09-09T12:52:52;99672.53;;;35.40;64.46
8941;BME280;4505;43.406;23.226;2022-09-09T12:55:21;99664.28;;;34.31;68.48
8941;BME280;4505;43.406;23.226;2022-09-09T12:57:50;99663.44;;;35.47;59.10
8941;BME280;4505;43.406;23.226;2022-09-09T13:00:18;99664.03;;;35.89;56.81
8941;BME280;4505;43.406;23.226;2022-09-09T13:02:46;99669.44;;;34.64;60.79
8941;BME280;4505;43.406;23.226;2022-09-09T13:05:16;99661.19;;;34.68;64.51
8941;BME280;4505;43.406;23.226;2022-09-09T13:07:44;99650.47;;;35.19;63.15
8941;BME280;4505;43.406;23.226;2022-09-09T13:10:11;99652.03;;;34.01;61.51
8941;BME280;4505;43.406;23.226;2022-09-09T13:12:38;99663.44;;;32.23;83.93
8941;BME280;4505;43.406;23.226;2022-09-09T13:15:05;99664.63;;;30.32;100.00
8941;BME280;4505;43.406;23.226;2022-09-09T13:17:38;99655.72;;;30.61;100.00
8941;BME280;4505;43.406;23.226;2022-09-09T13:20:06;99654.31;;;29.84;100.00
8941;BME280;4505;43.406;23.226;2022-09-09T13:22:35;99644.16;;;29.46;100.00